sensor_id;sensor_type;location;lat;lon;timestamp;temperature;humidity
14877;DHT22;69691;48.172;17.070;2023-06-24T00:00:08;21.10;90.40
14877;DHT22;69691;48.172;17.070;2023-06-24T00:02:38;21.00;90.60
14877;DHT22;69691;48.172;17.070;2023-06-24T00:05:05;20.80;91.10
14877;DHT22;69691;48.172;17.070;2023-06-24T00:07:32;20.70;90.90
14877;DHT22;69691;48.172;17.070;2023-06-24T00:10:01;20.60;91.10
14877;DHT22;69691;48.172;17.070;2023-06-24T00:12:29;20.60;91.30
14877;DHT22;69691;48.172;17.070;2023-06-24T00:14:55;20.50;91.50
14877;DHT22;69691;48.172;17.070;2023-06-24T00:17:20;20.50;91.80
14877;DHT22;69691;48.172;17.070;2023-06-24T00:19:46;20.40;91.60
14877;DHT22;69691;48.172;17.070;2023-06-24T00:22:12;20.40;91.60
14877;DHT22;69691;48.172;17.070;2023-06-24T00:24:38;20.40;91.40
14877;DHT22;69691;48.172;17.070;2023-06-24T00:27:05;20.40;91.20
14877;DHT22;69691;48.172;17.070;2023-06-24T00:29:31;20.40;91.00
14877;DHT22;69691;48.172;17.070;2023-06-24T00:31:57;20.30;90.80
14877;DHT22;69691;48.172;17.070;2023-06-24T00:34:23;20.30;90.90
14877;DHT22;69691;48.172;17.070;2023-06-24T00:36:51;20.30;90.60
14877;DHT22;69691;48.172;17.070;2023-06-24T00:39:16;20.20;90.00
14877;DHT22;69691;48.172;17.070;2023-06-24T00:41:42;20.20;90.00
14877;DHT22;69691;48.172;17.070;2023-06-24T00:44:09;20.20;89.90
14877;DHT22;69691;48.172;17.070;2023-06-24T00:46:35;20.20;89.70
14877;DHT22;69691;48.172;17.070;2023-06-24T00:49:01;20.10;89.70
14877;DHT22;69691;48.172;17.070;2023-06-24T00:51:29;20.10;89.90
14877;DHT22;69691;48.172;17.070;2023-06-24T00:54:00;20.10;89.90
14877;DHT22;69691;48.172;17.070;2023-06-24T00:56:33;20.10;90.00
14877;DHT22;69691;48.172;17.070;2023-06-24T00:59:01;20.10;89.90
14877;DHT22;69691;48.172;17.070;2023-06-24T01:01:29;20.10;89.30
14877;DHT22;69691;48.172;17.070;2023-06-24T01:03:59;20.10;88.70
14877;DHT22;69691;48.172;17.070;2023-06-24T01:06:27;20.10;88.80
14877;DHT22;69691;48.172;17.070;2023-06-24T01:09:02;20.00;88.70
14877;DHT22;69691;48.172;17.070;2023-06-24T01:11:30;20.10;88.60
14877;DHT22;69691;48.172;17.070;2023-06-24T01:13:57;20.00;88.60
14877;DHT22;69691;48.172;17.070;2023-06-24T01:25:33;19.90;89.40
14877;DHT22;69691;48.172;17.070;2023-06-24T01:40:12;19.80;89.90
14877;DHT22;69691;48.172;17.070;2023-06-24T01:42:47;19.80;89.50
14877;DHT22;69691;48.172;17.070;2023-06-24T01:45:19;19.90;89.70
14877;DHT22;69691;48.172;17.070;2023-06-24T01:47:49;20.00;89.30
14877;DHT22;69691;48.172;17.070;2023-06-24T01:50:27;20.10;88.90
14877;DHT22;69691;48.172;17.070;2023-06-24T01:52:57;20.20;88.60
14877;DHT22;69691;48.172;17.070;2023-06-24T01:55:26;20.30;88.00
14877;DHT22;69691;48.172;17.070;2023-06-24T01:57:55;20.30;87.80
14877;DHT22;69691;48.172;17.070;2023-06-24T02:00:23;20.30;87.50
14877;DHT22;69691;48.172;17.070;2023-06-24T02:02:50;20.30;87.20
14877;DHT22;69691;48.172;17.070;2023-06-24T02:05:17;20.40;87.20
14877;DHT22;69691;48.172;17.070;2023-06-24T02:07:46;20.40;86.80
14877;DHT22;69691;48.172;17.070;2023-06-24T02:10:14;20.50;87.50
14877;DHT22;69691;48.172;17.070;2023-06-24T02:12:42;20.50;86.40
14877;DHT22;69691;48.172;17.070;2023-06-24T02:15:10;20.50;85.80
14877;DHT22;69691;48.172;17.070;2023-06-24T02:17:39;20.60;85.50
14877;DHT22;69691;48.172;17.070;2023-06-24T02:20:07;20.60;85.10
14877;DHT22;69691;48.172;17.070;2023-06-24T02:22:38;20.60;84.90
14877;DHT22;69691;48.172;17.070;2023-06-24T02:25:06;20.50;84.60
14877;DHT22;69691;48.172;17.070;2023-06-24T02:27:34;20.60;84.80
14877;DHT22;69691;48.172;17.070;2023-06-24T02:30:01;20.60;84.70
14877;DHT22;69691;48.172;17.070;2023-06-24T02:32:29;20.60;84.30
14877;DHT22;69691;48.172;17.070;2023-06-24T02:34:57;20.60;84.20
14877;DHT22;69691;48.172;17.070;2023-06-24T02:37:25;20.60;84.00
14877;DHT22;69691;48.172;17.070;2023-06-24T02:39:51;20.60;84.00
14877;DHT22;69691;48.172;17.070;2023-06-24T02:42:16;20.70;83.80
14877;DHT22;69691;48.172;17.070;2023-06-24T02:44:43;20.70;83.80
14877;DHT22;69691;48.172;17.070;2023-06-24T02:47:11;20.70;83.60
14877;DHT22;69691;48.172;17.070;2023-06-24T02:49:39;20.70;83.80
14877;DHT22;69691;48.172;17.070;2023-06-24T02:52:05;20.70;83.70
14877;DHT22;69691;48.172;17.070;2023-06-24T02:54:33;20.70;83.70
14877;DHT22;69691;48.172;17.070;2023-06-24T02:57:29;20.70;83.80
14877;DHT22;69691;48.172;17.070;2023-06-24T03:00:14;20.60;83.90
14877;DHT22;69691;48.172;17.070;2023-06-24T03:03:07;20.60;84.30
14877;DHT22;69691;48.172;17.070;2023-06-24T03:05:36;20.60;84.60
14877;DHT22;69691;48.172;17.070;2023-06-24T03:08:03;20.60;84.70
14877;DHT22;69691;48.172;17.070;2023-06-24T03:10:30;20.60;84.70
14877;DHT22;69691;48.172;17.070;2023-06-24T03:12:57;20.60;84.50
14877;DHT22;69691;48.172;17.070;2023-06-24T03:15:30;20.60;84.60
14877;DHT22;69691;48.172;17.070;2023-06-24T03:17:57;20.60;84.80
14877;DHT22;69691;48.172;17.070;2023-06-24T03:20:23;20.60;84.60
14877;DHT22;69691;48.172;17.070;2023-06-24T03:22:49;20.50;84.70
14877;DHT22;69691;48.172;17.070;2023-06-24T03:25:18;20.40;85.30
14877;DHT22;69691;48.172;17.070;2023-06-24T03:27:45;20.40;85.60
14877;DHT22;69691;48.172;17.070;2023-06-24T03:30:11;20.30;85.70
14877;DHT22;69691;48.172;17.070;2023-06-24T03:32:40;20.30;86.00
14877;DHT22;69691;48.172;17.070;2023-06-24T03:35:13;20.30;86.50
14877;DHT22;69691;48.172;17.070;2023-06-24T03:37:40;20.30;86.60
14877;DHT22;69691;48.172;17.070;2023-06-24T03:40:06;20.30;86.60
14877;DHT22;69691;48.172;17.070;2023-06-24T03:42:34;20.40;86.40
14877;DHT22;69691;48.172;17.070;2023-06-24T03:45:02;20.50;86.10
14877;DHT22;69691;48.172;17.070;2023-06-24T03:47:29;20.60;85.70
14877;DHT22;69691;48.172;17.070;2023-06-24T03:49:55;20.70;85.30
14877;DHT22;69691;48.172;17.070;2023-06-24T03:52:21;20.70;85.10
14877;DHT22;69691;48.172;17.070;2023-06-24T03:54:47;20.80;84.60
14877;DHT22;69691;48.172;17.070;2023-06-24T03:57:13;20.80;84.50
14877;DHT22;69691;48.172;17.070;2023-06-24T03:59:39;20.90;84.00
14877;DHT22;69691;48.172;17.070;2023-06-24T04:02:05;20.90;83.60
14877;DHT22;69691;48.172;17.070;2023-06-24T04:04:35;20.90;83.50
14877;DHT22;69691;48.172;17.070;2023-06-24T04:07:03;21.00;83.20
14877;DHT22;69691;48.172;17.070;2023-06-24T04:09:33;21.10;83.00
14877;DHT22;69691;48.172;17.070;2023-06-24T04:11:59;21.00;82.70
14877;DHT22;69691;48.172;17.070;2023-06-24T04:14:32;21.10;82.60
14877;DHT22;69691;48.172;17.070;2023-06-24T04:16:58;21.10;82.60
14877;DHT22;69691;48.172;17.070;2023-06-24T04:19:24;21.10;82.40
14877;DHT22;69691;48.172;17.070;2023-06-24T04:21:49;21.10;83.20
14877;DHT22;69691;48.172;17.070;2023-06-24T04:24:15;21.10;82.40
14877;DHT22;69691;48.172;17.070;2023-06-24T04:26:41;21.10;82.70
14877;DHT22;69691;48.172;17.070;2023-06-24T04:29:07;21.10;82.60
14877;DHT22;69691;48.172;17.070;2023-06-24T04:31:33;21.10;82.50
14877;DHT22;69691;48.172;17.070;2023-06-24T04:33:59;21.20;82.70
14877;DHT22;69691;48.172;17.070;2023-06-24T04:36:24;21.20;82.80
14877;DHT22;69691;48.172;17.070;2023-06-24T04:38:50;21.30;82.30
14877;DHT22;69691;48.172;17.070;2023-06-24T04:41:16;21.30;82.50
14877;DHT22;69691;48.172;17.070;2023-06-24T04:43:43;21.40;82.10
14877;DHT22;69691;48.172;17.070;2023-06-24T04:46:10;21.50;81.50
14877;DHT22;69691;48.172;17.070;2023-06-24T04:48:35;21.50;81.50
14877;DHT22;69691;48.172;17.070;2023-06-24T04:51:01;21.50;81.50
14877;DHT22;69691;48.172;17.070;2023-06-24T04:53:27;21.50;81.20
14877;DHT22;69691;48.172;17.070;2023-06-24T04:55:53;21.60;81.10
14877;DHT22;69691;48.172;17.070;2023-06-24T04:58:19;21.60;81.80
14877;DHT22;69691;48.172;17.070;2023-06-24T05:00:44;21.60;81.20
14877;DHT22;69691;48.172;17.070;2023-06-24T05:03:10;21.60;81.10
14877;DHT22;69691;48.172;17.070;2023-06-24T05:05:36;21.60;81.10
14877;DHT22;69691;48.172;17.070;2023-06-24T05:08:02;21.70;81.20
14877;DHT22;69691;48.172;17.070;2023-06-24T05:10:28;21.70;81.30
14877;DHT22;69691;48.172;17.070;2023-06-24T05:12:54;21.70;81.30
14877;DHT22;69691;48.172;17.070;2023-06-24T05:15:20;21.70;81.30
14877;DHT22;69691;48.172;17.070;2023-06-24T05:17:45;21.60;81.40
14877;DHT22;69691;48.172;17.070;2023-06-24T05:20:11;21.40;82.10
14877;DHT22;69691;48.172;17.070;2023-06-24T05:22:37;21.30;82.80
14877;DHT22;69691;48.172;17.070;2023-06-24T05:25:03;21.30;83.40
14877;DHT22;69691;48.172;17.070;2023-06-24T05:27:29;21.20;84.10
14877;DHT22;69691;48.172;17.070;2023-06-24T05:29:55;21.10;84.50
14877;DHT22;69691;48.172;17.070;2023-06-24T05:32:21;21.10;85.10
14877;DHT22;69691;48.172;17.070;2023-06-24T05:34:47;21.10;85.20
14877;DHT22;69691;48.172;17.070;2023-06-24T05:37:12;21.10;85.40
14877;DHT22;69691;48.172;17.070;2023-06-24T05:39:39;21.10;86.00
14877;DHT22;69691;48.172;17.070;2023-06-24T05:42:05;21.10;86.10
14877;DHT22;69691;48.172;17.070;2023-06-24T05:44:31;21.10;86.20
14877;DHT22;69691;48.172;17.070;2023-06-24T05:46:56;21.10;86.30
14877;DHT22;69691;48.172;17.070;2023-06-24T05:49:22;21.10;86.40
14877;DHT22;69691;48.172;17.070;2023-06-24T05:51:48;21.10;86.70
14877;DHT22;69691;48.172;17.070;2023-06-24T05:54:14;21.10;87.10
14877;DHT22;69691;48.172;17.070;2023-06-24T05:56:40;21.00;87.20
14877;DHT22;69691;48.172;17.070;2023-06-24T05:59:06;21.00;87.60
14877;DHT22;69691;48.172;17.070;2023-06-24T06:01:32;20.90;88.00
14877;DHT22;69691;48.172;17.070;2023-06-24T06:03:58;20.80;88.50
14877;DHT22;69691;48.172;17.070;2023-06-24T06:06:23;20.80;88.70
14877;DHT22;69691;48.172;17.070;2023-06-24T06:08:49;20.80;88.80
14877;DHT22;69691;48.172;17.070;2023-06-24T06:11:15;20.80;88.80
14877;DHT22;69691;48.172;17.070;2023-06-24T06:13:41;20.90;88.80
14877;DHT22;69691;48.172;17.070;2023-06-24T06:16:07;20.80;88.70
14877;DHT22;69691;48.172;17.070;2023-06-24T06:18:33;20.90;89.10
14877;DHT22;69691;48.172;17.070;2023-06-24T06:20:58;21.00;88.80
14877;DHT22;69691;48.172;17.070;2023-06-24T06:23:24;21.00;88.50
14877;DHT22;69691;48.172;17.070;2023-06-24T06:25:51;21.00;88.40
14877;DHT22;69691;48.172;17.070;2023-06-24T06:28:17;21.00;88.50
14877;DHT22;69691;48.172;17.070;2023-06-24T06:30:43;20.90;88.50
14877;DHT22;69691;48.172;17.070;2023-06-24T06:33:09;20.90;88.50
14877;DHT22;69691;48.172;17.070;2023-06-24T06:35:35;20.90;88.80
14877;DHT22;69691;48.172;17.070;2023-06-24T06:38:00;20.90;88.60
14877;DHT22;69691;48.172;17.070;2023-06-24T06:40:26;20.90;88.50
14877;DHT22;69691;48.172;17.070;2023-06-24T06:42:54;20.90;88.50
14877;DHT22;69691;48.172;17.070;2023-06-24T06:45:20;20.90;88.60
14877;DHT22;69691;48.172;17.070;2023-06-24T06:47:46;20.90;88.60
14877;DHT22;69691;48.172;17.070;2023-06-24T06:50:12;21.00;88.30
14877;DHT22;69691;48.172;17.070;2023-06-24T06:52:38;21.10;87.80
14877;DHT22;69691;48.172;17.070;2023-06-24T06:55:04;21.10;87.90
14877;DHT22;69691;48.172;17.070;2023-06-24T06:57:30;21.10;87.60
14877;DHT22;69691;48.172;17.070;2023-06-24T06:59:57;21.00;87.70
14877;DHT22;69691;48.172;17.070;2023-06-24T07:02:23;21.10;87.60
14877;DHT22;69691;48.172;17.070;2023-06-24T07:04:49;21.20;87.30
14877;DHT22;69691;48.172;17.070;2023-06-24T07:07:16;21.20;87.10
14877;DHT22;69691;48.172;17.070;2023-06-24T07:09:42;21.20;87.30
14877;DHT22;69691;48.172;17.070;2023-06-24T07:12:08;21.20;87.00
14877;DHT22;69691;48.172;17.070;2023-06-24T07:14:34;21.30;86.70
14877;DHT22;69691;48.172;17.070;2023-06-24T07:17:00;21.30;87.30
14877;DHT22;69691;48.172;17.070;2023-06-24T07:19:26;21.30;86.40
14877;DHT22;69691;48.172;17.070;2023-06-24T07:21:52;21.30;86.70
14877;DHT22;69691;48.172;17.070;2023-06-24T07:24:18;21.40;86.60
14877;DHT22;69691;48.172;17.070;2023-06-24T07:26:43;21.60;86.40
14877;DHT22;69691;48.172;17.070;2023-06-24T07:29:09;21.70;86.20
14877;DHT22;69691;48.172;17.070;2023-06-24T07:31:36;21.80;85.70
14877;DHT22;69691;48.172;17.070;2023-06-24T07:34:02;21.80;85.40
14877;DHT22;69691;48.172;17.070;2023-06-24T07:36:28;21.80;85.30
14877;DHT22;69691;48.172;17.070;2023-06-24T07:38:54;21.80;85.10
14877;DHT22;69691;48.172;17.070;2023-06-24T07:41:20;21.80;84.90
14877;DHT22;69691;48.172;17.070;2023-06-24T07:43:45;21.80;84.90
14877;DHT22;69691;48.172;17.070;2023-06-24T07:46:11;21.80;84.60
14877;DHT22;69691;48.172;17.070;2023-06-24T07:48:37;21.80;84.30
14877;DHT22;69691;48.172;17.070;2023-06-24T07:51:03;21.90;84.40
14877;DHT22;69691;48.172;17.070;2023-06-24T07:53:29;22.00;83.30
14877;DHT22;69691;48.172;17.070;2023-06-24T07:55:54;22.00;82.70
14877;DHT22;69691;48.172;17.070;2023-06-24T07:58:20;22.00;82.70
14877;DHT22;69691;48.172;17.070;2023-06-24T08:00:46;22.00;82.60
14877;DHT22;69691;48.172;17.070;2023-06-24T08:03:13;21.90;82.30
14877;DHT22;69691;48.172;17.070;2023-06-24T08:05:39;21.90;82.80
14877;DHT22;69691;48.172;17.070;2023-06-24T08:08:05;21.80;82.70
14877;DHT22;69691;48.172;17.070;2023-06-24T08:10:32;21.80;82.80
14877;DHT22;69691;48.172;17.070;2023-06-24T08:12:58;21.90;82.80
14877;DHT22;69691;48.172;17.070;2023-06-24T08:15:24;21.90;82.40
14877;DHT22;69691;48.172;17.070;2023-06-24T08:17:53;22.00;82.20
14877;DHT22;69691;48.172;17.070;2023-06-24T08:20:23;22.20;81.90
14877;DHT22;69691;48.172;17.070;2023-06-24T08:22:48;22.20;81.40
14877;DHT22;69691;48.172;17.070;2023-06-24T08:25:15;22.20;80.90
14877;DHT22;69691;48.172;17.070;2023-06-24T08:27:41;22.20;81.30
14877;DHT22;69691;48.172;17.070;2023-06-24T08:30:09;22.10;81.30
14877;DHT22;69691;48.172;17.070;2023-06-24T08:32:36;22.20;81.30
14877;DHT22;69691;48.172;17.070;2023-06-24T08:35:02;22.20;81.40
14877;DHT22;69691;48.172;17.070;2023-06-24T08:37:27;22.40;81.10
14877;DHT22;69691;48.172;17.070;2023-06-24T08:39:53;22.50;81.20
14877;DHT22;69691;48.172;17.070;2023-06-24T08:42:19;22.60;80.30
14877;DHT22;69691;48.172;17.070;2023-06-24T08:44:45;22.70;79.50
14877;DHT22;69691;48.172;17.070;2023-06-24T08:47:11;22.80;79.20
14877;DHT22;69691;48.172;17.070;2023-06-24T08:49:53;22.70;80.00
14877;DHT22;69691;48.172;17.070;2023-06-24T08:52:26;22.60;82.30
14877;DHT22;69691;48.172;17.070;2023-06-24T08:54:55;22.50;83.10
14877;DHT22;69691;48.172;17.070;2023-06-24T08:57:24;22.50;83.10
14877;DHT22;69691;48.172;17.070;2023-06-24T08:59:50;22.50;83.60
14877;DHT22;69691;48.172;17.070;2023-06-24T09:02:16;22.40;83.60
14877;DHT22;69691;48.172;17.070;2023-06-24T09:04:42;22.30;83.60
14877;DHT22;69691;48.172;17.070;2023-06-24T09:07:08;22.20;84.40
14877;DHT22;69691;48.172;17.070;2023-06-24T09:09:42;22.30;84.80
14877;DHT22;69691;48.172;17.070;2023-06-24T09:12:11;22.40;84.60
14877;DHT22;69691;48.172;17.070;2023-06-24T09:14:38;22.40;86.30
14877;DHT22;69691;48.172;17.070;2023-06-24T09:17:04;22.50;85.10
14877;DHT22;69691;48.172;17.070;2023-06-24T09:19:30;22.60;86.60
14877;DHT22;69691;48.172;17.070;2023-06-24T09:22:06;22.80;84.80
14877;DHT22;69691;48.172;17.070;2023-06-24T09:24:33;22.80;84.30
14877;DHT22;69691;48.172;17.070;2023-06-24T09:27:00;22.80;83.10
14877;DHT22;69691;48.172;17.070;2023-06-24T09:29:28;22.90;83.80
14877;DHT22;69691;48.172;17.070;2023-06-24T09:31:57;22.80;81.50
14877;DHT22;69691;48.172;17.070;2023-06-24T09:34:27;22.70;81.10
14877;DHT22;69691;48.172;17.070;2023-06-24T09:36:57;22.60;81.40
14877;DHT22;69691;48.172;17.070;2023-06-24T09:39:24;22.60;81.00
14877;DHT22;69691;48.172;17.070;2023-06-24T09:41:55;22.50;81.90
14877;DHT22;69691;48.172;17.070;2023-06-24T09:44:21;22.50;81.30
14877;DHT22;69691;48.172;17.070;2023-06-24T09:46:47;22.40;80.80
14877;DHT22;69691;48.172;17.070;2023-06-24T09:49:14;22.40;81.00
14877;DHT22;69691;48.172;17.070;2023-06-24T09:51:44;22.30;80.90
14877;DHT22;69691;48.172;17.070;2023-06-24T09:54:13;22.30;80.80
14877;DHT22;69691;48.172;17.070;2023-06-24T09:56:45;22.20;79.90
14877;DHT22;69691;48.172;17.070;2023-06-24T09:59:15;22.10;80.00
14877;DHT22;69691;48.172;17.070;2023-06-24T10:01:44;22.10;80.00
14877;DHT22;69691;48.172;17.070;2023-06-24T10:04:15;22.00;80.20
14877;DHT22;69691;48.172;17.070;2023-06-24T10:06:42;21.90;80.50
14877;DHT22;69691;48.172;17.070;2023-06-24T10:09:08;22.00;80.40
14877;DHT22;69691;48.172;17.070;2023-06-24T10:11:36;22.00;81.40
14877;DHT22;69691;48.172;17.070;2023-06-24T10:14:02;22.00;80.80
14877;DHT22;69691;48.172;17.070;2023-06-24T10:16:28;22.10;81.00
14877;DHT22;69691;48.172;17.070;2023-06-24T10:19:00;22.20;80.50
14877;DHT22;69691;48.172;17.070;2023-06-24T10:21:52;22.20;80.00
14877;DHT22;69691;48.172;17.070;2023-06-24T10:24:33;22.30;79.60
14877;DHT22;69691;48.172;17.070;2023-06-24T10:27:07;22.50;79.30
14877;DHT22;69691;48.172;17.070;2023-06-24T10:30:03;22.60;78.50
14877;DHT22;69691;48.172;17.070;2023-06-24T10:32:40;22.80;77.10
14877;DHT22;69691;48.172;17.070;2023-06-24T10:35:24;23.10;76.40
14877;DHT22;69691;48.172;17.070;2023-06-24T10:37:59;23.30;75.00
14877;DHT22;69691;48.172;17.070;2023-06-24T10:40:42;23.40;74.00
14877;DHT22;69691;48.172;17.070;2023-06-24T10:45:50;23.90;72.40
14877;DHT22;69691;48.172;17.070;2023-06-24T10:48:17;24.10;71.70
14877;DHT22;69691;48.172;17.070;2023-06-24T10:50:47;24.30;70.60
14877;DHT22;69691;48.172;17.070;2023-06-24T10:53:13;24.20;70.30
14877;DHT22;69691;48.172;17.070;2023-06-24T10:55:39;24.40;69.90
14877;DHT22;69691;48.172;17.070;2023-06-24T10:58:09;24.50;69.30
14877;DHT22;69691;48.172;17.070;2023-06-24T11:00:36;24.50;68.70
14877;DHT22;69691;48.172;17.070;2023-06-24T11:03:16;24.50;68.30
14877;DHT22;69691;48.172;17.070;2023-06-24T11:05:48;24.40;69.00
14877;DHT22;69691;48.172;17.070;2023-06-24T11:08:14;24.40;68.60
14877;DHT22;69691;48.172;17.070;2023-06-24T11:10:47;24.30;68.70
14877;DHT22;69691;48.172;17.070;2023-06-24T11:13:14;24.50;68.50
14877;DHT22;69691;48.172;17.070;2023-06-24T11:15:40;24.70;68.10
14877;DHT22;69691;48.172;17.070;2023-06-24T11:18:08;24.70;67.80
14877;DHT22;69691;48.172;17.070;2023-06-24T11:20:39;24.70;67.30
14877;DHT22;69691;48.172;17.070;2023-06-24T11:23:09;24.80;67.90
14877;DHT22;69691;48.172;17.070;2023-06-24T11:25:42;25.00;68.00
14877;DHT22;69691;48.172;17.070;2023-06-24T11:28:18;25.00;67.60
14877;DHT22;69691;48.172;17.070;2023-06-24T11:30:44;24.90;69.70
14877;DHT22;69691;48.172;17.070;2023-06-24T11:33:10;24.60;69.50
14877;DHT22;69691;48.172;17.070;2023-06-24T11:35:35;24.40;69.40
14877;DHT22;69691;48.172;17.070;2023-06-24T11:38:02;24.30;71.80
14877;DHT22;69691;48.172;17.070;2023-06-24T11:40:31;24.30;71.20
14877;DHT22;69691;48.172;17.070;2023-06-24T11:43:00;24.30;71.10
14877;DHT22;69691;48.172;17.070;2023-06-24T11:45:26;24.30;71.30
14877;DHT22;69691;48.172;17.070;2023-06-24T11:47:52;24.50;70.40
14877;DHT22;69691;48.172;17.070;2023-06-24T11:50:18;24.80;69.00
14877;DHT22;69691;48.172;17.070;2023-06-24T11:52:51;24.90;68.10
14877;DHT22;69691;48.172;17.070;2023-06-24T11:55:22;25.10;67.40
14877;DHT22;69691;48.172;17.070;2023-06-24T11:58:04;25.10;66.20
14877;DHT22;69691;48.172;17.070;2023-06-24T12:00:38;25.00;65.50
14877;DHT22;69691;48.172;17.070;2023-06-24T12:03:05;25.00;65.80
14877;DHT22;69691;48.172;17.070;2023-06-24T12:05:35;24.90;65.70
14877;DHT22;69691;48.172;17.070;2023-06-24T12:08:06;25.00;65.40
14877;DHT22;69691;48.172;17.070;2023-06-24T12:10:34;25.10;66.10
14877;DHT22;69691;48.172;17.070;2023-06-24T12:13:03;25.10;65.50
14877;DHT22;69691;48.172;17.070;2023-06-24T12:15:31;25.10;64.40
14877;DHT22;69691;48.172;17.070;2023-06-24T12:17:58;25.00;63.80
14877;DHT22;69691;48.172;17.070;2023-06-24T12:20:25;24.90;65.10
14877;DHT22;69691;48.172;17.070;2023-06-24T12:22:51;24.80;64.70
14877;DHT22;69691;48.172;17.070;2023-06-24T12:25:18;24.90;65.40
14877;DHT22;69691;48.172;17.070;2023-06-24T12:27:44;24.90;67.00
14877;DHT22;69691;48.172;17.070;2023-06-24T12:30:11;25.00;67.50
14877;DHT22;69691;48.172;17.070;2023-06-24T12:32:37;25.00;66.60
14877;DHT22;69691;48.172;17.070;2023-06-24T12:35:04;24.80;66.10
14877;DHT22;69691;48.172;17.070;2023-06-24T12:37:31;24.70;65.30
14877;DHT22;69691;48.172;17.070;2023-06-24T12:40:01;24.60;65.70
14877;DHT22;69691;48.172;17.070;2023-06-24T12:42:27;24.50;65.60
14877;DHT22;69691;48.172;17.070;2023-06-24T12:44:54;24.50;64.70
14877;DHT22;69691;48.172;17.070;2023-06-24T12:47:21;24.30;66.50
14877;DHT22;69691;48.172;17.070;2023-06-24T12:49:47;24.20;67.00
14877;DHT22;69691;48.172;17.070;2023-06-24T12:52:14;24.00;67.40
14877;DHT22;69691;48.172;17.070;2023-06-24T12:54:40;24.00;67.00
14877;DHT22;69691;48.172;17.070;2023-06-24T12:57:06;24.10;66.50
14877;DHT22;69691;48.172;17.070;2023-06-24T12:59:32;24.20;65.80
14877;DHT22;69691;48.172;17.070;2023-06-24T13:01:58;24.30;64.60
14877;DHT22;69691;48.172;17.070;2023-06-24T13:04:24;24.30;64.40
14877;DHT22;69691;48.172;17.070;2023-06-24T13:06:54;24.30;64.50
14877;DHT22;69691;48.172;17.070;2023-06-24T13:09:20;24.30;64.60
14877;DHT22;69691;48.172;17.070;2023-06-24T13:11:46;24.30;64.20
14877;DHT22;69691;48.172;17.070;2023-06-24T13:14:13;24.50;64.70
14877;DHT22;69691;48.172;17.070;2023-06-24T13:16:39;24.60;63.50
14877;DHT22;69691;48.172;17.070;2023-06-24T13:19:05;24.90;63.00
14877;DHT22;69691;48.172;17.070;2023-06-24T13:21:31;25.10;61.60
14877;DHT22;69691;48.172;17.070;2023-06-24T13:23:56;25.10;60.70
14877;DHT22;69691;48.172;17.070;2023-06-24T13:26:22;25.00;60.90
14877;DHT22;69691;48.172;17.070;2023-06-24T13:28:49;25.20;60.80
14877;DHT22;69691;48.172;17.070;2023-06-24T13:31:15;25.40;60.00
14877;DHT22;69691;48.172;17.070;2023-06-24T13:33:41;25.60;59.60
14877;DHT22;69691;48.172;17.070;2023-06-24T13:36:09;25.80;59.00
14877;DHT22;69691;48.172;17.070;2023-06-24T13:38:39;26.10;58.50
14877;DHT22;69691;48.172;17.070;2023-06-24T13:41:04;26.50;58.00
14877;DHT22;69691;48.172;17.070;2023-06-24T13:43:30;26.80;57.40
14877;DHT22;69691;48.172;17.070;2023-06-24T13:45:56;27.00;57.10
14877;DHT22;69691;48.172;17.070;2023-06-24T13:48:23;27.00;56.50
14877;DHT22;69691;48.172;17.070;2023-06-24T13:50:49;26.90;56.80
14877;DHT22;69691;48.172;17.070;2023-06-24T13:53:15;26.70;57.00
14877;DHT22;69691;48.172;17.070;2023-06-24T13:55:41;26.50;57.40
14877;DHT22;69691;48.172;17.070;2023-06-24T13:58:07;26.40;57.80
14877;DHT22;69691;48.172;17.070;2023-06-24T14:00:33;26.50;57.40
14877;DHT22;69691;48.172;17.070;2023-06-24T14:02:59;26.60;57.00
14877;DHT22;69691;48.172;17.070;2023-06-24T14:05:25;26.60;57.00
14877;DHT22;69691;48.172;17.070;2023-06-24T14:07:51;26.60;57.10
14877;DHT22;69691;48.172;17.070;2023-06-24T14:10:17;26.50;57.10
14877;DHT22;69691;48.172;17.070;2023-06-24T14:12:43;26.50;57.10
14877;DHT22;69691;48.172;17.070;2023-06-24T14:15:09;26.60;57.40
14877;DHT22;69691;48.172;17.070;2023-06-24T14:17:36;26.50;57.10
14877;DHT22;69691;48.172;17.070;2023-06-24T14:20:01;26.20;57.60
14877;DHT22;69691;48.172;17.070;2023-06-24T14:22:28;26.10;58.40
14877;DHT22;69691;48.172;17.070;2023-06-24T14:24:54;26.10;58.60
14877;DHT22;69691;48.172;17.070;2023-06-24T14:27:20;26.10;58.70
14877;DHT22;69691;48.172;17.070;2023-06-24T14:29:46;26.00;58.90
14877;DHT22;69691;48.172;17.070;2023-06-24T14:32:11;25.90;58.70
14877;DHT22;69691;48.172;17.070;2023-06-24T14:34:37;25.80;59.00
14877;DHT22;69691;48.172;17.070;2023-06-24T14:37:04;25.70;59.20
14877;DHT22;69691;48.172;17.070;2023-06-24T14:39:30;25.80;59.50
14877;DHT22;69691;48.172;17.070;2023-06-24T14:41:56;25.70;59.60
14877;DHT22;69691;48.172;17.070;2023-06-24T14:44:21;25.70;59.50
14877;DHT22;69691;48.172;17.070;2023-06-24T14:46:47;25.80;59.20
14877;DHT22;69691;48.172;17.070;2023-06-24T14:49:13;25.80;59.00
14877;DHT22;69691;48.172;17.070;2023-06-24T14:51:39;25.80;59.20
14877;DHT22;69691;48.172;17.070;2023-06-24T14:54:05;25.90;59.10
14877;DHT22;69691;48.172;17.070;2023-06-24T14:56:30;26.00;58.80
14877;DHT22;69691;48.172;17.070;2023-06-24T14:58:57;26.20;58.50
14877;DHT22;69691;48.172;17.070;2023-06-24T15:01:23;26.30;58.20
14877;DHT22;69691;48.172;17.070;2023-06-24T15:03:48;26.40;57.70
14877;DHT22;69691;48.172;17.070;2023-06-24T15:06:14;26.50;57.20
14877;DHT22;69691;48.172;17.070;2023-06-24T15:08:40;26.60;57.30
14877;DHT22;69691;48.172;17.070;2023-06-24T15:11:06;26.70;57.00
14877;DHT22;69691;48.172;17.070;2023-06-24T15:13:32;26.70;57.10
14877;DHT22;69691;48.172;17.070;2023-06-24T15:15:58;26.70;57.20
14877;DHT22;69691;48.172;17.070;2023-06-24T15:18:25;26.80;57.30
14877;DHT22;69691;48.172;17.070;2023-06-24T15:20:50;26.80;56.60
14877;DHT22;69691;48.172;17.070;2023-06-24T15:23:16;26.80;56.60
14877;DHT22;69691;48.172;17.070;2023-06-24T15:25:42;26.90;57.40
14877;DHT22;69691;48.172;17.070;2023-06-24T15:28:08;27.00;56.30
14877;DHT22;69691;48.172;17.070;2023-06-24T15:30:34;26.80;56.50
14877;DHT22;69691;48.172;17.070;2023-06-24T15:33:00;26.80;56.80
14877;DHT22;69691;48.172;17.070;2023-06-24T15:35:26;26.70;56.40
14877;DHT22;69691;48.172;17.070;2023-06-24T15:37:52;26.60;56.80
14877;DHT22;69691;48.172;17.070;2023-06-24T15:40:18;26.60;56.80